Terminal Aerodrome Forecast
Issued by NWS Pocatello, ID

Current Version | Previous Version | Text Only | Print | Product List | Glossary On
Versions: 1 2 3 4 5 6 7 8 9 10 11 12 13 14 15 16
000
FTUS45 KPIH 201700
TAFBYI
TAF
KBYI 201720Z 2018/2118 26011KT P6SM VCTS SCT050 BKN080CB
     FM210300 22010KT P6SM VCSH SCT080 BKN110=

USA.gov is the U.S. government's official web portal to all federal, state and local government web resources and services.